sensor_id;sensor_type;location;lat;lon;timestamp;P1;durP1;ratioP1;P2;durP2;ratioP2
12210;SDS011;6168;42.658;23.298;2022-08-19T00:01:19;3.38;;;3.20;;
12210;SDS011;6168;42.658;23.298;2022-08-19T00:03:46;3.92;;;3.55;;
12210;SDS011;6168;42.658;23.298;2022-08-19T00:06:13;4.05;;;3.67;;
12210;SDS011;6168;42.658;23.298;2022-08-19T00:08:42;4.07;;;3.83;;
12210;SDS011;6168;42.658;23.298;2022-08-19T00:11:10;4.40;;;3.55;;
12210;SDS011;6168;42.658;23.298;2022-08-19T00:13:37;4.18;;;3.92;;
12210;SDS011;6168;42.658;23.298;2022-08-19T00:16:04;4.80;;;3.70;;
12210;SDS011;6168;42.658;23.298;2022-08-19T00:18:32;3.63;;;3.42;;
12210;SDS011;6168;42.658;23.298;2022-08-19T00:20:59;3.75;;;3.55;;
12210;SDS011;6168;42.658;23.298;2022-08-19T00:23:26;3.63;;;3.50;;
12210;SDS011;6168;42.658;23.298;2022-08-19T00:25:55;4.28;;;3.90;;
12210;SDS011;6168;42.658;23.298;2022-08-19T00:28:22;4.63;;;4.22;;
12210;SDS011;6168;42.658;23.298;2022-08-19T00:30:49;5.05;;;4.32;;
12210;SDS011;6168;42.658;23.298;2022-08-19T00:33:17;4.65;;;3.83;;
12210;SDS011;6168;42.658;23.298;2022-08-19T00:35:43;3.97;;;3.67;;
12210;SDS011;6168;42.658;23.298;2022-08-19T00:38:10;4.22;;;4.03;;
12210;SDS011;6168;42.658;23.298;2022-08-19T00:40:37;3.78;;;3.50;;
12210;SDS011;6168;42.658;23.298;2022-08-19T00:43:09;4.03;;;3.72;;
12210;SDS011;6168;42.658;23.298;2022-08-19T00:45:39;4.35;;;4.20;;
12210;SDS011;6168;42.658;23.298;2022-08-19T00:48:08;4.78;;;3.92;;
12210;SDS011;6168;42.658;23.298;2022-08-19T00:50:36;5.72;;;4.35;;
12210;SDS011;6168;42.658;23.298;2022-08-19T00:53:08;6.65;;;4.07;;
12210;SDS011;6168;42.658;23.298;2022-08-19T00:55:36;6.07;;;3.90;;
12210;SDS011;6168;42.658;23.298;2022-08-19T00:58:06;4.22;;;3.88;;
12210;SDS011;6168;42.658;23.298;2022-08-19T01:00:38;6.18;;;3.65;;
12210;SDS011;6168;42.658;23.298;2022-08-19T01:03:05;3.55;;;3.33;;
12210;SDS011;6168;42.658;23.298;2022-08-19T01:05:35;4.20;;;4.00;;
12210;SDS011;6168;42.658;23.298;2022-08-19T01:08:03;4.20;;;3.90;;
12210;SDS011;6168;42.658;23.298;2022-08-19T01:10:32;3.58;;;3.38;;
12210;SDS011;6168;42.658;23.298;2022-08-19T01:13:02;4.03;;;3.67;;
12210;SDS011;6168;42.658;23.298;2022-08-19T01:15:32;4.38;;;4.13;;
12210;SDS011;6168;42.658;23.298;2022-08-19T01:18:06;6.75;;;3.97;;
12210;SDS011;6168;42.658;23.298;2022-08-19T01:20:35;3.58;;;3.38;;
12210;SDS011;6168;42.658;23.298;2022-08-19T01:23:04;3.90;;;3.70;;
12210;SDS011;6168;42.658;23.298;2022-08-19T01:25:32;3.60;;;3.30;;
12210;SDS011;6168;42.658;23.298;2022-08-19T01:28:06;4.00;;;3.80;;
12210;SDS011;6168;42.658;23.298;2022-08-19T01:30:34;4.68;;;4.47;;
12210;SDS011;6168;42.658;23.298;2022-08-19T01:33:02;4.28;;;4.07;;
12210;SDS011;6168;42.658;23.298;2022-08-19T01:35:30;4.78;;;4.05;;
12210;SDS011;6168;42.658;23.298;2022-08-19T01:37:58;4.03;;;3.72;;
12210;SDS011;6168;42.658;23.298;2022-08-19T01:40:30;4.75;;;3.88;;
12210;SDS011;6168;42.658;23.298;2022-08-19T01:43:00;4.15;;;3.63;;
12210;SDS011;6168;42.658;23.298;2022-08-19T01:45:28;4.30;;;3.88;;
12210;SDS011;6168;42.658;23.298;2022-08-19T01:47:58;4.63;;;4.15;;
12210;SDS011;6168;42.658;23.298;2022-08-19T01:50:25;4.40;;;4.20;;
12210;SDS011;6168;42.658;23.298;2022-08-19T01:52:52;4.50;;;4.30;;
12210;SDS011;6168;42.658;23.298;2022-08-19T01:55:21;4.45;;;4.00;;
12210;SDS011;6168;42.658;23.298;2022-08-19T01:57:51;3.50;;;3.40;;
12210;SDS011;6168;42.658;23.298;2022-08-19T02:00:23;3.83;;;3.63;;
12210;SDS011;6168;42.658;23.298;2022-08-19T02:02:53;4.35;;;4.05;;
12210;SDS011;6168;42.658;23.298;2022-08-19T02:05:20;4.30;;;4.10;;
12210;SDS011;6168;42.658;23.298;2022-08-19T02:07:48;4.70;;;3.83;;
12210;SDS011;6168;42.658;23.298;2022-08-19T02:10:16;4.18;;;3.97;;
12210;SDS011;6168;42.658;23.298;2022-08-19T02:12:46;4.40;;;4.20;;
12210;SDS011;6168;42.658;23.298;2022-08-19T02:15:15;5.45;;;5.05;;
12210;SDS011;6168;42.658;23.298;2022-08-19T02:17:44;5.38;;;4.85;;
12210;SDS011;6168;42.658;23.298;2022-08-19T02:20:10;5.00;;;4.55;;
12210;SDS011;6168;42.658;23.298;2022-08-19T02:22:38;7.95;;;4.22;;
12210;SDS011;6168;42.658;23.298;2022-08-19T02:25:07;5.13;;;4.72;;
12210;SDS011;6168;42.658;23.298;2022-08-19T02:27:35;4.97;;;4.57;;
12210;SDS011;6168;42.658;23.298;2022-08-19T02:30:03;4.60;;;4.30;;
12210;SDS011;6168;42.658;23.298;2022-08-19T02:32:33;6.05;;;5.15;;
12210;SDS011;6168;42.658;23.298;2022-08-19T02:34:59;5.30;;;4.82;;
12210;SDS011;6168;42.658;23.298;2022-08-19T02:37:27;5.15;;;4.72;;
12210;SDS011;6168;42.658;23.298;2022-08-19T02:40:11;5.25;;;4.88;;
12210;SDS011;6168;42.658;23.298;2022-08-19T02:42:38;4.38;;;4.07;;
12210;SDS011;6168;42.658;23.298;2022-08-19T02:45:06;5.00;;;4.70;;
12210;SDS011;6168;42.658;23.298;2022-08-19T02:47:35;4.93;;;4.72;;
12210;SDS011;6168;42.658;23.298;2022-08-19T02:50:03;5.43;;;5.03;;
12210;SDS011;6168;42.658;23.298;2022-08-19T02:52:31;4.88;;;4.57;;
12210;SDS011;6168;42.658;23.298;2022-08-19T02:54:58;5.10;;;4.60;;
12210;SDS011;6168;42.658;23.298;2022-08-19T02:57:26;5.10;;;4.57;;
12210;SDS011;6168;42.658;23.298;2022-08-19T02:59:53;5.03;;;4.75;;
12210;SDS011;6168;42.658;23.298;2022-08-19T03:02:20;4.65;;;4.25;;
12210;SDS011;6168;42.658;23.298;2022-08-19T03:04:48;4.57;;;4.28;;
12210;SDS011;6168;42.658;23.298;2022-08-19T03:07:16;4.80;;;4.40;;
12210;SDS011;6168;42.658;23.298;2022-08-19T03:09:44;4.95;;;4.43;;
12210;SDS011;6168;42.658;23.298;2022-08-19T03:12:11;5.28;;;4.63;;
12210;SDS011;6168;42.658;23.298;2022-08-19T03:14:38;5.72;;;5.30;;
12210;SDS011;6168;42.658;23.298;2022-08-19T03:17:05;4.75;;;4.47;;
12210;SDS011;6168;42.658;23.298;2022-08-19T03:19:33;5.50;;;4.95;;
12210;SDS011;6168;42.658;23.298;2022-08-19T03:22:01;5.20;;;4.90;;
12210;SDS011;6168;42.658;23.298;2022-08-19T03:24:29;7.35;;;5.18;;
12210;SDS011;6168;42.658;23.298;2022-08-19T03:26:56;5.95;;;5.50;;
12210;SDS011;6168;42.658;23.298;2022-08-19T03:29:24;5.88;;;5.15;;
12210;SDS011;6168;42.658;23.298;2022-08-19T03:31:52;5.38;;;5.03;;
12210;SDS011;6168;42.658;23.298;2022-08-19T03:34:21;6.00;;;5.07;;
12210;SDS011;6168;42.658;23.298;2022-08-19T03:36:52;4.97;;;4.63;;
12210;SDS011;6168;42.658;23.298;2022-08-19T03:39:21;5.35;;;4.95;;
12210;SDS011;6168;42.658;23.298;2022-08-19T03:41:50;5.85;;;5.45;;
12210;SDS011;6168;42.658;23.298;2022-08-19T03:44:18;5.78;;;4.75;;
12210;SDS011;6168;42.658;23.298;2022-08-19T03:46:47;5.03;;;4.57;;
12210;SDS011;6168;42.658;23.298;2022-08-19T03:49:16;5.72;;;5.43;;
12210;SDS011;6168;42.658;23.298;2022-08-19T03:51:44;5.55;;;5.15;;
12210;SDS011;6168;42.658;23.298;2022-08-19T03:54:13;5.47;;;5.18;;
12210;SDS011;6168;42.658;23.298;2022-08-19T03:56:43;6.32;;;5.82;;
12210;SDS011;6168;42.658;23.298;2022-08-19T03:59:11;5.70;;;5.20;;
12210;SDS011;6168;42.658;23.298;2022-08-19T04:01:42;5.03;;;4.70;;
12210;SDS011;6168;42.658;23.298;2022-08-19T04:04:10;4.63;;;4.32;;
12210;SDS011;6168;42.658;23.298;2022-08-19T04:06:37;6.63;;;5.78;;
12210;SDS011;6168;42.658;23.298;2022-08-19T04:09:06;5.25;;;4.85;;
12210;SDS011;6168;42.658;23.298;2022-08-19T04:11:35;5.35;;;4.95;;
12210;SDS011;6168;42.658;23.298;2022-08-19T04:14:06;6.50;;;5.90;;
12210;SDS011;6168;42.658;23.298;2022-08-19T04:16:34;6.65;;;5.97;;
12210;SDS011;6168;42.658;23.298;2022-08-19T04:19:01;6.05;;;5.47;;
12210;SDS011;6168;42.658;23.298;2022-08-19T04:21:29;8.50;;;5.15;;
12210;SDS011;6168;42.658;23.298;2022-08-19T04:23:57;5.82;;;5.32;;
12210;SDS011;6168;42.658;23.298;2022-08-19T04:26:24;5.97;;;5.47;;
12210;SDS011;6168;42.658;23.298;2022-08-19T04:28:52;6.72;;;6.13;;
12210;SDS011;6168;42.658;23.298;2022-08-19T04:31:23;7.03;;;6.00;;
12210;SDS011;6168;42.658;23.298;2022-08-19T04:33:53;8.23;;;6.47;;
12210;SDS011;6168;42.658;23.298;2022-08-19T04:36:22;8.63;;;5.93;;
12210;SDS011;6168;42.658;23.298;2022-08-19T04:38:52;8.23;;;6.03;;
12210;SDS011;6168;42.658;23.298;2022-08-19T04:41:21;8.57;;;5.38;;
12210;SDS011;6168;42.658;23.298;2022-08-19T04:44:05;5.90;;;5.40;;
12210;SDS011;6168;42.658;23.298;2022-08-19T04:46:34;7.90;;;6.00;;
12210;SDS011;6168;42.658;23.298;2022-08-19T04:49:01;6.15;;;5.55;;
12210;SDS011;6168;42.658;23.298;2022-08-19T04:51:30;7.88;;;5.85;;
12210;SDS011;6168;42.658;23.298;2022-08-19T04:53:58;10.57;;;6.25;;
12210;SDS011;6168;42.658;23.298;2022-08-19T04:56:25;7.68;;;5.88;;
12210;SDS011;6168;42.658;23.298;2022-08-19T04:58:53;5.10;;;4.90;;
12210;SDS011;6168;42.658;23.298;2022-08-19T05:01:22;5.57;;;5.07;;
12210;SDS011;6168;42.658;23.298;2022-08-19T05:03:52;6.43;;;5.15;;
12210;SDS011;6168;42.658;23.298;2022-08-19T05:06:19;6.25;;;5.53;;
12210;SDS011;6168;42.658;23.298;2022-08-19T05:08:47;6.82;;;5.30;;
12210;SDS011;6168;42.658;23.298;2022-08-19T05:11:16;6.40;;;5.45;;
12210;SDS011;6168;42.658;23.298;2022-08-19T05:13:46;6.40;;;5.80;;
12210;SDS011;6168;42.658;23.298;2022-08-19T05:16:14;7.20;;;6.70;;
12210;SDS011;6168;42.658;23.298;2022-08-19T05:18:42;7.45;;;6.72;;
12210;SDS011;6168;42.658;23.298;2022-08-19T05:21:25;8.10;;;6.93;;
12210;SDS011;6168;42.658;23.298;2022-08-19T05:24:09;6.68;;;5.55;;
12210;SDS011;6168;42.658;23.298;2022-08-19T05:26:37;6.70;;;6.13;;
12210;SDS011;6168;42.658;23.298;2022-08-19T05:29:05;6.55;;;5.88;;
12210;SDS011;6168;42.658;23.298;2022-08-19T05:31:33;7.22;;;6.25;;
12210;SDS011;6168;42.658;23.298;2022-08-19T05:34:01;5.53;;;5.13;;
12210;SDS011;6168;42.658;23.298;2022-08-19T05:36:34;4.63;;;4.32;;
12210;SDS011;6168;42.658;23.298;2022-08-19T05:39:03;5.85;;;5.35;;
12210;SDS011;6168;42.658;23.298;2022-08-19T05:41:30;5.50;;;5.00;;
12210;SDS011;6168;42.658;23.298;2022-08-19T05:43:57;6.07;;;4.75;;
12210;SDS011;6168;42.658;23.298;2022-08-19T05:46:24;5.00;;;4.60;;
12210;SDS011;6168;42.658;23.298;2022-08-19T05:48:51;7.65;;;5.03;;
12210;SDS011;6168;42.658;23.298;2022-08-19T05:51:21;5.45;;;4.97;;
12210;SDS011;6168;42.658;23.298;2022-08-19T05:53:49;8.02;;;5.07;;
12210;SDS011;6168;42.658;23.298;2022-08-19T05:56:16;4.38;;;3.97;;
12210;SDS011;6168;42.658;23.298;2022-08-19T05:58:45;5.00;;;4.60;;
12210;SDS011;6168;42.658;23.298;2022-08-19T06:01:13;4.22;;;3.92;;
12210;SDS011;6168;42.658;23.298;2022-08-19T06:03:42;5.72;;;4.03;;
12210;SDS011;6168;42.658;23.298;2022-08-19T06:06:10;4.40;;;3.97;;
12210;SDS011;6168;42.658;23.298;2022-08-19T06:08:38;8.35;;;5.60;;
12210;SDS011;6168;42.658;23.298;2022-08-19T06:11:13;5.35;;;4.75;;
12210;SDS011;6168;42.658;23.298;2022-08-19T06:13:42;9.43;;;5.20;;
12210;SDS011;6168;42.658;23.298;2022-08-19T06:16:10;8.85;;;4.85;;
12210;SDS011;6168;42.658;23.298;2022-08-19T06:18:36;8.23;;;5.00;;
12210;SDS011;6168;42.658;23.298;2022-08-19T06:21:03;6.32;;;5.65;;
12210;SDS011;6168;42.658;23.298;2022-08-19T06:23:30;8.65;;;5.55;;
12210;SDS011;6168;42.658;23.298;2022-08-19T06:25:59;7.65;;;5.38;;
12210;SDS011;6168;42.658;23.298;2022-08-19T06:28:27;5.32;;;4.82;;
12210;SDS011;6168;42.658;23.298;2022-08-19T06:30:54;6.72;;;5.40;;
12210;SDS011;6168;42.658;23.298;2022-08-19T06:33:21;9.25;;;5.40;;
12210;SDS011;6168;42.658;23.298;2022-08-19T06:35:47;6.05;;;5.38;;
12210;SDS011;6168;42.658;23.298;2022-08-19T06:38:14;7.60;;;5.18;;
12210;SDS011;6168;42.658;23.298;2022-08-19T06:40:41;5.97;;;5.55;;
12210;SDS011;6168;42.658;23.298;2022-08-19T06:43:08;6.85;;;4.93;;
12210;SDS011;6168;42.658;23.298;2022-08-19T06:45:37;6.40;;;5.47;;
12210;SDS011;6168;42.658;23.298;2022-08-19T06:48:04;8.43;;;6.18;;
12210;SDS011;6168;42.658;23.298;2022-08-19T06:50:32;6.10;;;4.95;;
12210;SDS011;6168;42.658;23.298;2022-08-19T06:52:58;6.72;;;5.60;;
12210;SDS011;6168;42.658;23.298;2022-08-19T06:55:25;4.78;;;4.43;;
12210;SDS011;6168;42.658;23.298;2022-08-19T06:57:55;5.43;;;4.95;;
12210;SDS011;6168;42.658;23.298;2022-08-19T07:00:22;10.80;;;5.38;;
12210;SDS011;6168;42.658;23.298;2022-08-19T07:02:50;8.18;;;5.68;;
12210;SDS011;6168;42.658;23.298;2022-08-19T07:05:18;8.57;;;4.93;;
12210;SDS011;6168;42.658;23.298;2022-08-19T07:07:45;10.23;;;4.80;;
12210;SDS011;6168;42.658;23.298;2022-08-19T07:10:12;4.20;;;3.85;;
12210;SDS011;6168;42.658;23.298;2022-08-19T07:12:39;5.68;;;4.72;;
12210;SDS011;6168;42.658;23.298;2022-08-19T07:15:06;5.13;;;4.65;;
12210;SDS011;6168;42.658;23.298;2022-08-19T07:17:36;5.13;;;4.68;;
12210;SDS011;6168;42.658;23.298;2022-08-19T07:20:06;4.05;;;3.83;;
12210;SDS011;6168;42.658;23.298;2022-08-19T07:22:33;5.90;;;4.63;;
12210;SDS011;6168;42.658;23.298;2022-08-19T07:25:00;4.43;;;4.03;;
12210;SDS011;6168;42.658;23.298;2022-08-19T07:27:28;4.95;;;4.55;;
12210;SDS011;6168;42.658;23.298;2022-08-19T07:29:55;8.70;;;4.63;;
12210;SDS011;6168;42.658;23.298;2022-08-19T07:32:22;5.70;;;4.35;;
12210;SDS011;6168;42.658;23.298;2022-08-19T07:34:51;8.32;;;5.10;;
12210;SDS011;6168;42.658;23.298;2022-08-19T07:37:19;6.22;;;4.90;;
12210;SDS011;6168;42.658;23.298;2022-08-19T07:39:46;5.60;;;4.95;;
12210;SDS011;6168;42.658;23.298;2022-08-19T07:42:13;7.55;;;4.80;;
12210;SDS011;6168;42.658;23.298;2022-08-19T07:44:40;6.45;;;4.95;;
12210;SDS011;6168;42.658;23.298;2022-08-19T07:47:07;7.22;;;4.63;;
12210;SDS011;6168;42.658;23.298;2022-08-19T07:49:34;19.63;;;6.95;;
12210;SDS011;6168;42.658;23.298;2022-08-19T07:52:03;7.70;;;5.15;;
12210;SDS011;6168;42.658;23.298;2022-08-19T07:54:34;14.15;;;5.38;;
12210;SDS011;6168;42.658;23.298;2022-08-19T07:57:03;7.22;;;5.25;;
12210;SDS011;6168;42.658;23.298;2022-08-19T07:59:30;40.67;;;13.60;;
12210;SDS011;6168;42.658;23.298;2022-08-19T08:01:58;6.30;;;4.40;;
12210;SDS011;6168;42.658;23.298;2022-08-19T08:04:25;5.00;;;4.10;;
12210;SDS011;6168;42.658;23.298;2022-08-19T08:07:21;4.13;;;3.83;;
12210;SDS011;6168;42.658;23.298;2022-08-19T08:10:07;4.28;;;3.90;;
12210;SDS011;6168;42.658;23.298;2022-08-19T08:12:36;9.68;;;4.00;;
12210;SDS011;6168;42.658;23.298;2022-08-19T08:15:07;4.22;;;3.83;;
12210;SDS011;6168;42.658;23.298;2022-08-19T08:17:36;4.40;;;3.75;;
12210;SDS011;6168;42.658;23.298;2022-08-19T08:20:04;4.25;;;3.20;;
12210;SDS011;6168;42.658;23.298;2022-08-19T08:22:33;3.60;;;3.33;;
12210;SDS011;6168;42.658;23.298;2022-08-19T08:25:21;7.68;;;4.10;;
12210;SDS011;6168;42.658;23.298;2022-08-19T08:27:49;4.65;;;3.63;;
12210;SDS011;6168;42.658;23.298;2022-08-19T08:30:18;7.82;;;3.13;;
12210;SDS011;6168;42.658;23.298;2022-08-19T08:32:48;3.55;;;2.97;;
12210;SDS011;6168;42.658;23.298;2022-08-19T08:35:20;6.45;;;3.53;;
12210;SDS011;6168;42.658;23.298;2022-08-19T08:37:49;6.07;;;4.00;;
12210;SDS011;6168;42.658;23.298;2022-08-19T08:40:19;8.18;;;4.20;;
12210;SDS011;6168;42.658;23.298;2022-08-19T08:42:54;3.10;;;2.58;;
12210;SDS011;6168;42.658;23.298;2022-08-19T08:45:27;7.40;;;3.05;;
12210;SDS011;6168;42.658;23.298;2022-08-19T08:47:55;3.33;;;2.15;;
12210;SDS011;6168;42.658;23.298;2022-08-19T08:50:29;6.68;;;4.85;;
12210;SDS011;6168;42.658;23.298;2022-08-19T08:53:01;7.00;;;5.47;;
12210;SDS011;6168;42.658;23.298;2022-08-19T08:55:33;3.85;;;2.80;;
12210;SDS011;6168;42.658;23.298;2022-08-19T08:58:01;6.55;;;3.85;;
12210;SDS011;6168;42.658;23.298;2022-08-19T09:00:33;2.75;;;2.33;;
12210;SDS011;6168;42.658;23.298;2022-08-19T09:03:02;3.40;;;2.47;;
12210;SDS011;6168;42.658;23.298;2022-08-19T09:05:34;3.67;;;2.35;;
12210;SDS011;6168;42.658;23.298;2022-08-19T09:08:08;2.58;;;2.17;;
12210;SDS011;6168;42.658;23.298;2022-08-19T09:10:46;2.47;;;2.28;;
12210;SDS011;6168;42.658;23.298;2022-08-19T09:13:20;5.63;;;1.52;;
12210;SDS011;6168;42.658;23.298;2022-08-19T09:15:57;1.85;;;1.75;;
12210;SDS011;6168;42.658;23.298;2022-08-19T09:18:37;2.63;;;1.92;;
12210;SDS011;6168;42.658;23.298;2022-08-19T09:21:06;3.65;;;1.92;;
12210;SDS011;6168;42.658;23.298;2022-08-19T09:23:33;2.38;;;1.90;;
12210;SDS011;6168;42.658;23.298;2022-08-19T09:26:04;1.65;;;1.35;;
12210;SDS011;6168;42.658;23.298;2022-08-19T09:28:33;1.40;;;1.30;;
12210;SDS011;6168;42.658;23.298;2022-08-19T09:31:02;3.20;;;1.00;;
12210;SDS011;6168;42.658;23.298;2022-08-19T09:33:29;1.30;;;1.30;;
12210;SDS011;6168;42.658;23.298;2022-08-19T09:36:03;1.50;;;1.02;;
12210;SDS011;6168;42.658;23.298;2022-08-19T09:38:32;3.17;;;1.23;;
12210;SDS011;6168;42.658;23.298;2022-08-19T09:41:03;2.65;;;1.00;;
12210;SDS011;6168;42.658;23.298;2022-08-19T09:43:31;2.40;;;1.80;;
12210;SDS011;6168;42.658;23.298;2022-08-19T09:45:58;1.73;;;1.00;;
12210;SDS011;6168;42.658;23.298;2022-08-19T09:48:26;2.90;;;1.35;;
12210;SDS011;6168;42.658;23.298;2022-08-19T09:50:52;3.05;;;1.45;;
12210;SDS011;6168;42.658;23.298;2022-08-19T09:53:19;4.30;;;1.20;;
12210;SDS011;6168;42.658;23.298;2022-08-19T09:55:48;1.15;;;1.15;;
12210;SDS011;6168;42.658;23.298;2022-08-19T09:58:16;3.60;;;1.38;;
12210;SDS011;6168;42.658;23.298;2022-08-19T10:00:43;3.78;;;1.02;;
12210;SDS011;6168;42.658;23.298;2022-08-19T10:03:11;2.60;;;1.00;;
12210;SDS011;6168;42.658;23.298;2022-08-19T10:05:37;4.45;;;1.58;;
12210;SDS011;6168;42.658;23.298;2022-08-19T10:08:17;1.25;;;1.20;;
12210;SDS011;6168;42.658;23.298;2022-08-19T10:10:46;1.40;;;1.40;;
12210;SDS011;6168;42.658;23.298;2022-08-19T10:13:14;3.60;;;1.60;;
12210;SDS011;6168;42.658;23.298;2022-08-19T10:15:47;1.20;;;1.20;;
12210;SDS011;6168;42.658;23.298;2022-08-19T10:18:15;1.35;;;1.25;;
12210;SDS011;6168;42.658;23.298;2022-08-19T10:20:43;1.60;;;1.50;;
12210;SDS011;6168;42.658;23.298;2022-08-19T10:23:11;2.28;;;1.40;;
12210;SDS011;6168;42.658;23.298;2022-08-19T10:25:38;2.47;;;1.30;;
12210;SDS011;6168;42.658;23.298;2022-08-19T10:28:05;1.67;;;1.23;;
12210;SDS011;6168;42.658;23.298;2022-08-19T10:30:34;3.20;;;1.38;;
12210;SDS011;6168;42.658;23.298;2022-08-19T10:33:01;3.65;;;1.45;;
12210;SDS011;6168;42.658;23.298;2022-08-19T10:35:28;1.58;;;1.48;;
12210;SDS011;6168;42.658;23.298;2022-08-19T10:37:55;1.83;;;1.27;;
12210;SDS011;6168;42.658;23.298;2022-08-19T10:40:24;3.17;;;1.48;;
12210;SDS011;6168;42.658;23.298;2022-08-19T10:42:52;2.92;;;1.40;;
12210;SDS011;6168;42.658;23.298;2022-08-19T10:45:20;1.90;;;1.50;;
12210;SDS011;6168;42.658;23.298;2022-08-19T10:47:52;3.35;;;1.80;;
12210;SDS011;6168;42.658;23.298;2022-08-19T10:50:19;3.33;;;1.33;;
12210;SDS011;6168;42.658;23.298;2022-08-19T10:53:04;1.55;;;1.40;;
12210;SDS011;6168;42.658;23.298;2022-08-19T10:55:34;2.42;;;2.22;;
12210;SDS011;6168;42.658;23.298;2022-08-19T10:58:19;1.80;;;1.70;;
12210;SDS011;6168;42.658;23.298;2022-08-19T11:00:50;1.58;;;1.58;;
12210;SDS011;6168;42.658;23.298;2022-08-19T11:03:20;3.83;;;2.10;;
12210;SDS011;6168;42.658;23.298;2022-08-19T11:05:51;3.80;;;2.10;;
12210;SDS011;6168;42.658;23.298;2022-08-19T11:08:23;3.13;;;1.63;;
12210;SDS011;6168;42.658;23.298;2022-08-19T11:10:52;2.10;;;1.92;;
12210;SDS011;6168;42.658;23.298;2022-08-19T11:13:20;1.40;;;1.40;;
12210;SDS011;6168;42.658;23.298;2022-08-19T11:15:55;2.17;;;1.73;;
12210;SDS011;6168;42.658;23.298;2022-08-19T11:18:24;3.75;;;1.70;;
12210;SDS011;6168;42.658;23.298;2022-08-19T11:20:51;1.25;;;1.23;;
12210;SDS011;6168;42.658;23.298;2022-08-19T11:23:18;4.50;;;1.35;;
12210;SDS011;6168;42.658;23.298;2022-08-19T11:25:45;2.25;;;2.05;;
12210;SDS011;6168;42.658;23.298;2022-08-19T11:28:12;2.00;;;1.83;;
12210;SDS011;6168;42.658;23.298;2022-08-19T11:30:39;2.05;;;1.63;;
12210;SDS011;6168;42.658;23.298;2022-08-19T11:33:06;1.50;;;1.38;;
12210;SDS011;6168;42.658;23.298;2022-08-19T11:35:37;4.28;;;2.17;;
12210;SDS011;6168;42.658;23.298;2022-08-19T11:38:05;6.50;;;2.00;;
12210;SDS011;6168;42.658;23.298;2022-08-19T11:40:32;1.63;;;1.60;;
12210;SDS011;6168;42.658;23.298;2022-08-19T11:42:59;5.07;;;1.52;;
12210;SDS011;6168;42.658;23.298;2022-08-19T11:45:26;2.00;;;1.90;;
12210;SDS011;6168;42.658;23.298;2022-08-19T11:47:54;2.58;;;1.85;;
12210;SDS011;6168;42.658;23.298;2022-08-19T11:50:22;2.55;;;2.33;;
12210;SDS011;6168;42.658;23.298;2022-08-19T11:52:51;2.67;;;1.85;;
12210;SDS011;6168;42.658;23.298;2022-08-19T11:55:20;2.97;;;2.30;;
12210;SDS011;6168;42.658;23.298;2022-08-19T11:57:47;3.05;;;2.10;;
12210;SDS011;6168;42.658;23.298;2022-08-19T12:00:14;2.75;;;1.83;;
12210;SDS011;6168;42.658;23.298;2022-08-19T12:02:41;2.42;;;2.20;;
12210;SDS011;6168;42.658;23.298;2022-08-19T12:05:08;2.30;;;1.83;;
12210;SDS011;6168;42.658;23.298;2022-08-19T12:07:35;3.88;;;2.00;;
12210;SDS011;6168;42.658;23.298;2022-08-19T12:10:04;2.40;;;1.75;;
12210;SDS011;6168;42.658;23.298;2022-08-19T12:12:31;2.00;;;1.88;;
12210;SDS011;6168;42.658;23.298;2022-08-19T12:14:58;5.97;;;2.10;;
12210;SDS011;6168;42.658;23.298;2022-08-19T12:17:25;2.40;;;2.20;;
12210;SDS011;6168;42.658;23.298;2022-08-19T12:19:52;2.00;;;1.88;;
12210;SDS011;6168;42.658;23.298;2022-08-19T12:22:20;3.00;;;1.95;;
12210;SDS011;6168;42.658;23.298;2022-08-19T12:24:47;2.53;;;2.33;;
12210;SDS011;6168;42.658;23.298;2022-08-19T12:27:17;2.47;;;1.92;;
12210;SDS011;6168;42.658;23.298;2022-08-19T12:29:44;2.65;;;2.10;;
12210;SDS011;6168;42.658;23.298;2022-08-19T12:32:11;2.40;;;1.80;;
12210;SDS011;6168;42.658;23.298;2022-08-19T12:34:38;2.42;;;2.22;;
12210;SDS011;6168;42.658;23.298;2022-08-19T12:37:05;2.05;;;1.95;;
12210;SDS011;6168;42.658;23.298;2022-08-19T12:39:36;2.53;;;2.30;;
12210;SDS011;6168;42.658;23.298;2022-08-19T12:42:05;2.40;;;1.85;;
12210;SDS011;6168;42.658;23.298;2022-08-19T12:44:35;2.67;;;1.63;;
12210;SDS011;6168;42.658;23.298;2022-08-19T12:47:02;2.50;;;2.08;;
12210;SDS011;6168;42.658;23.298;2022-08-19T12:49:30;4.90;;;1.83;;
12210;SDS011;6168;42.658;23.298;2022-08-19T12:51:58;3.63;;;2.33;;
12210;SDS011;6168;42.658;23.298;2022-08-19T12:54:25;2.35;;;2.15;;
12210;SDS011;6168;42.658;23.298;2022-08-19T12:56:52;4.00;;;1.95;;
12210;SDS011;6168;42.658;23.298;2022-08-19T12:59:19;1.88;;;1.73;;
12210;SDS011;6168;42.658;23.298;2022-08-19T13:01:47;4.60;;;2.10;;
12210;SDS011;6168;42.658;23.298;2022-08-19T13:04:14;1.77;;;1.60;;
12210;SDS011;6168;42.658;23.298;2022-08-19T13:06:41;4.38;;;2.00;;
12210;SDS011;6168;42.658;23.298;2022-08-19T13:09:08;5.88;;;1.80;;
12210;SDS011;6168;42.658;23.298;2022-08-19T13:11:36;1.73;;;1.63;;
12210;SDS011;6168;42.658;23.298;2022-08-19T13:14:03;3.35;;;2.22;;
12210;SDS011;6168;42.658;23.298;2022-08-19T13:16:30;4.43;;;1.92;;
12210;SDS011;6168;42.658;23.298;2022-08-19T13:18:59;3.53;;;1.70;;
12210;SDS011;6168;42.658;23.298;2022-08-19T13:21:28;3.03;;;2.13;;
12210;SDS011;6168;42.658;23.298;2022-08-19T13:23:55;2.10;;;1.83;;
12210;SDS011;6168;42.658;23.298;2022-08-19T13:26:23;3.05;;;1.80;;
12210;SDS011;6168;42.658;23.298;2022-08-19T13:28:50;3.25;;;1.73;;
12210;SDS011;6168;42.658;23.298;2022-08-19T13:31:35;3.50;;;2.03;;
12210;SDS011;6168;42.658;23.298;2022-08-19T13:34:28;3.63;;;2.10;;
12210;SDS011;6168;42.658;23.298;2022-08-19T13:36:57;2.70;;;1.83;;
12210;SDS011;6168;42.658;23.298;2022-08-19T13:39:24;1.80;;;1.70;;
12210;SDS011;6168;42.658;23.298;2022-08-19T13:41:52;1.60;;;1.50;;
12210;SDS011;6168;42.658;23.298;2022-08-19T13:44:19;2.05;;;1.95;;
12210;SDS011;6168;42.658;23.298;2022-08-19T13:46:46;4.40;;;2.05;;
12210;SDS011;6168;42.658;23.298;2022-08-19T13:49:17;2.08;;;1.92;;
12210;SDS011;6168;42.658;23.298;2022-08-19T13:51:45;6.20;;;2.08;;
12210;SDS011;6168;42.658;23.298;2022-08-19T13:54:12;3.67;;;2.13;;
12210;SDS011;6168;42.658;23.298;2022-08-19T13:56:39;2.35;;;1.30;;
12210;SDS011;6168;42.658;23.298;2022-08-19T13:59:07;2.13;;;2.03;;
12210;SDS011;6168;42.658;23.298;2022-08-19T14:01:34;1.80;;;1.70;;
12210;SDS011;6168;42.658;23.298;2022-08-19T14:04:02;5.28;;;1.90;;
12210;SDS011;6168;42.658;23.298;2022-08-19T14:06:29;3.42;;;1.92;;
12210;SDS011;6168;42.658;23.298;2022-08-19T14:08:57;3.50;;;1.88;;
12210;SDS011;6168;42.658;23.298;2022-08-19T14:11:24;3.42;;;1.52;;
12210;SDS011;6168;42.658;23.298;2022-08-19T14:13:51;2.05;;;1.60;;
12210;SDS011;6168;42.658;23.298;2022-08-19T14:16:18;2.55;;;1.90;;
12210;SDS011;6168;42.658;23.298;2022-08-19T14:18:46;2.47;;;1.77;;
12210;SDS011;6168;42.658;23.298;2022-08-19T14:21:14;3.28;;;2.17;;
12210;SDS011;6168;42.658;23.298;2022-08-19T14:23:42;3.08;;;2.35;;
12210;SDS011;6168;42.658;23.298;2022-08-19T14:26:12;5.40;;;1.98;;
12210;SDS011;6168;42.658;23.298;2022-08-19T14:28:40;5.38;;;2.20;;
12210;SDS011;6168;42.658;23.298;2022-08-19T14:31:08;2.72;;;2.13;;
12210;SDS011;6168;42.658;23.298;2022-08-19T14:33:35;4.50;;;2.33;;
12210;SDS011;6168;42.658;23.298;2022-08-19T14:36:03;3.25;;;1.90;;
12210;SDS011;6168;42.658;23.298;2022-08-19T14:38:30;5.63;;;1.98;;
12210;SDS011;6168;42.658;23.298;2022-08-19T14:41:12;3.15;;;1.70;;
12210;SDS011;6168;42.658;23.298;2022-08-19T14:43:42;3.45;;;1.92;;
12210;SDS011;6168;42.658;23.298;2022-08-19T14:46:11;3.85;;;2.03;;
12210;SDS011;6168;42.658;23.298;2022-08-19T14:48:38;3.15;;;1.88;;
12210;SDS011;6168;42.658;23.298;2022-08-19T14:51:05;4.45;;;2.22;;
12210;SDS011;6168;42.658;23.298;2022-08-19T14:53:32;6.03;;;2.33;;
12210;SDS011;6168;42.658;23.298;2022-08-19T14:56:00;6.25;;;2.40;;
12210;SDS011;6168;42.658;23.298;2022-08-19T14:58:28;3.90;;;2.50;;